Time;durP1;ratioP1;P1;durP2;ratioP2;P2;SDS_P1;SDS_P2;PMS_P1;PMS_P2;Temp;Humidity;BMP_temperature;BMP_pressure;BME280_temperature;BME280_humidity;BME280_pressure;Samples;Min_cycle;Max_cycle;Signal;HPM_P1;HPM_P2
2022/11/08 00:27:18;;;;;;;18.40;7.70;;;;;;;3.48;86.54;101116.84;32001073;27;20104;-76
2022/11/08 00:42:20;;;;;;;18.00;7.70;;;;;;;3.49;86.77;101113.03;31982485;27;20058;-77
2022/11/08 00:57:22;;;;;;;14.20;7.37;;;;;;;3.54;87.32;101114.69;31991017;27;20103;-75
2022/11/08 01:12:44;;;;;;;12.27;6.37;;;;;;;3.50;87.18;101119.97;31964814;27;20055;-75
2022/11/08 01:27:46;;;;;;;12.27;6.77;;;;;;;3.44;89.20;101115.97;31992216;27;20046;-76
2022/11/08 01:42:47;;;;;;;11.93;7.13;;;;;;;3.56;89.43;101115.09;31977902;27;20077;-75
2022/11/08 01:57:55;;;;;;;12.90;7.20;;;;;;;3.36;89.79;101108.84;31995640;27;20051;-76
2022/11/08 02:12:58;;;;;;;13.63;7.43;;;;;;;3.31;89.95;101125.22;31953188;27;20522;-75
2022/11/08 02:28:05;;;;;;;10.90;5.50;;;;;;;3.56;89.21;101123.94;31963140;27;20395;-76
2022/11/08 02:43:07;;;;;;;11.07;5.57;;;;;;;3.48;87.50;101127.59;32006818;27;20107;-76
2022/11/08 02:58:10;;;;;;;13.60;7.07;;;;;;;3.47;88.10;101120.66;31999387;27;20084;-75
2022/11/08 03:13:12;;;;;;;15.40;8.33;;;;;;;3.40;89.80;101120.47;31995691;27;20042;-75
2022/11/08 03:28:14;;;;;;;56.77;21.80;;;;;;;3.78;89.53;101129.88;32003524;27;20411;-73
2022/11/08 03:43:22;;;;;;;41.83;17.90;;;;;;;3.92;86.73;101130.19;31993159;27;20135;-75
2022/11/08 03:58:24;;;;;;;43.47;18.87;;;;;;;3.94;86.35;101122.56;31941605;27;20462;-75
2022/11/08 04:28:46;;;;;;;45.97;19.40;;;;;;;3.88;85.96;101115.88;31875751;27;20047;-76
2022/11/08 04:43:49;;;;;;;45.70;18.53;;;;;;;3.81;85.97;101119.19;31844703;27;20050;-74
2022/11/08 04:58:54;;;;;;;33.07;13.90;;;;;;;3.92;85.11;101104.09;31923647;27;20055;-76
2022/11/08 05:13:56;;;;;;;30.73;14.33;;;;;;;4.03;84.55;101120.47;31998712;27;20549;-75
2022/11/08 05:28:58;;;;;;;30.77;11.70;;;;;;;4.16;83.68;101113.88;31998216;27;20043;-75
2022/11/08 05:44:00;;;;;;;37.10;14.97;;;;;;;3.97;83.41;101127.25;31997740;27;20054;-76
2022/11/08 05:59:02;;;;;;;34.10;15.03;;;;;;;4.05;82.47;101128.94;31993063;27;20108;-77
2022/11/08 06:14:05;;;;;;;46.77;21.27;;;;;;;3.94;83.04;101128.72;32011117;27;20046;-77
2022/11/08 06:29:07;;;;;;;25.90;10.90;;;;;;;4.28;81.21;101124.50;32016687;27;20103;-76
2022/11/08 06:44:09;;;;;;;29.33;13.90;;;;;;;4.41;79.14;101125.16;32015797;27;20047;-75
2022/11/08 06:59:11;;;;;;;19.47;7.97;;;;;;;4.26;78.85;101139.41;32012318;27;20067;-76
2022/11/08 07:14:13;;;;;;;18.13;8.87;;;;;;;4.16;79.46;101140.75;32009748;27;20058;-76
2022/11/08 07:29:15;;;;;;;17.37;7.83;;;;;;;4.37;79.14;101133.16;31994584;27;20107;-76
2022/11/08 07:44:17;;;;;;;30.17;14.53;;;;;;;4.57;78.45;101127.78;31996228;27;20039;-76
2022/11/08 07:59:19;;;;;;;32.03;14.23;;;;;;;4.60;77.87;101137.84;31986921;27;20108;-75
2022/11/08 08:14:21;;;;;;;38.33;16.30;;;;;;;4.89;75.77;101123.06;31988231;27;20046;-76
2022/11/08 08:29:23;;;;;;;39.23;19.50;;;;;;;5.09;76.27;101127.31;31995465;27;20617;-76
2022/11/08 08:44:25;;;;;;;37.50;15.63;;;;;;;5.21;75.44;101126.34;31994183;27;20440;-77
2022/11/08 08:59:28;;;;;;;58.93;22.90;;;;;;;5.29;74.21;101117.28;31999562;27;20419;-78
2022/11/08 09:14:50;;;;;;;67.13;28.70;;;;;;;5.33;74.21;101108.13;31999727;27;20058;-78
2022/11/08 09:29:52;;;;;;;48.60;20.97;;;;;;;5.39;74.18;101101.34;31994401;27;20488;-79
2022/11/08 09:44:57;;;;;;;41.50;16.80;;;;;;;5.37;73.69;101100.91;32006349;27;20042;-78
2022/11/08 10:00:06;;;;;;;23.20;10.97;;;;;;;5.38;73.36;101093.59;32022873;27;20054;-78
2022/11/08 10:15:33;;;;;;;41.37;18.37;;;;;;;5.56;73.17;101065.06;32005211;27;20053;-78
2022/11/08 10:30:41;;;;;;;22.50;10.27;;;;;;;5.68;73.23;101051.38;32008189;27;20055;-77
2022/11/08 10:45:43;;;;;;;15.70;8.03;;;;;;;5.81;71.63;101055.44;32022646;27;20043;-84
2022/11/08 11:01:25;;;;;;;18.10;9.40;;;;;;;5.98;71.12;101042.59;32037324;27;20046;-84
2022/11/08 11:16:27;;;;;;;17.77;8.43;;;;;;;6.04;70.80;101035.75;32034470;27;20145;-84
2022/11/08 11:31:32;;;;;;;36.70;17.17;;;;;;;6.72;65.46;101021.19;32036055;27;20046;-84
2022/11/08 11:46:51;;;;;;;18.83;9.20;;;;;;;6.88;65.92;101027.13;32040963;27;20050;-82
2022/11/08 12:02:34;;;;;;;16.07;7.70;;;;;;;8.66;60.51;101029.09;32038140;27;20054;-81
2022/11/08 12:18:08;;;;;;;13.20;7.33;;;;;;;7.83;61.28;101035.22;32031529;27;20046;-84
2022/11/08 12:33:20;;;;;;;15.40;7.77;;;;;;;6.87;64.93;101033.66;32034536;27;20050;-83
2022/11/08 12:48:29;;;;;;;14.40;7.17;;;;;;;6.27;68.02;101025.66;32006620;27;20038;-84
2022/11/08 13:03:31;;;;;;;17.67;8.60;;;;;;;5.97;70.70;101027.56;31907990;27;20137;-86
2022/11/08 13:18:54;;;;;;;22.03;9.60;;;;;;;5.77;72.31;101043.81;32029064;27;20054;-84
2022/11/08 13:34:00;;;;;;;17.30;9.23;;;;;;;5.70;72.94;101046.41;32024802;27;20049;-83
2022/11/08 13:49:02;;;;;;;20.47;10.23;;;;;;;5.45;74.49;101048.72;32024499;27;20475;-83
2022/11/08 14:04:37;;;;;;;24.27;11.00;;;;;;;5.21;76.68;101053.66;32026863;27;20083;-85
2022/11/08 14:19:44;;;;;;;21.47;9.43;;;;;;;4.91;78.34;101065.09;32025380;27;20051;-86
2022/11/08 14:34:47;;;;;;;23.70;10.27;;;;;;;4.68;79.38;101065.03;32050945;27;20047;-85
2022/11/08 14:49:50;;;;;;;18.27;9.67;;;;;;;4.56;80.70;101072.44;32043869;27;20088;-83
2022/11/08 15:04:52;;;;;;;26.07;11.13;;;;;;;4.35;81.73;101083.53;32044421;27;20198;-84
2022/11/08 15:20:03;;;;;;;37.00;15.43;;;;;;;4.24;83.01;101087.94;32044348;27;20099;-84
2022/11/08 15:35:18;;;;;;;34.10;14.60;;;;;;;4.13;82.95;101103.81;32041681;27;20047;-85
2022/11/08 15:50:21;;;;;;;39.77;16.00;;;;;;;3.98;83.72;101100.03;32038788;27;20059;-84
2022/11/08 16:05:28;;;;;;;35.00;15.83;;;;;;;3.81;85.02;101102.28;32040683;27;20133;-85
2022/11/08 16:20:33;;;;;;;44.97;15.70;;;;;;;3.67;85.48;101103.50;32035979;27;20046;-85
2022/11/08 16:35:34;;;;;;;31.23;13.60;;;;;;;3.64;85.71;101109.56;32039098;27;20099;-84
2022/11/08 16:50:39;;;;;;;34.03;15.23;;;;;;;3.49;85.97;101105.00;32029355;27;20026;-86
2022/11/08 17:05:41;;;;;;;42.70;18.23;;;;;;;3.38;86.92;101103.94;32029563;27;20089;-84
2022/11/08 17:20:43;;;;;;;49.60;20.73;;;;;;;3.31;87.78;101122.53;32025294;27;20074;-85
2022/11/08 17:36:18;;;;;;;42.27;19.30;;;;;;;3.25;88.32;101134.66;32022212;27;20487;-85
2022/11/08 17:51:20;;;;;;;45.47;19.10;;;;;;;3.35;87.86;101112.66;31998933;27;21280;-82
2022/11/08 18:06:25;;;;;;;50.27;21.40;;;;;;;3.28;87.68;101115.19;32044774;27;20047;-84
2022/11/08 18:21:30;;;;;;;60.07;22.93;;;;;;;3.19;88.22;101120.69;32050376;27;20038;-85
2022/11/08 18:36:32;;;;;;;42.43;19.20;;;;;;;3.12;88.53;101133.13;32043678;27;20042;-85
2022/11/08 18:51:34;;;;;;;42.73;18.97;;;;;;;3.18;89.26;101134.47;32043811;27;20046;-84
2022/11/08 19:06:36;;;;;;;44.60;20.13;;;;;;;3.11;90.30;101134.25;32027240;27;20055;-78
2022/11/08 19:21:40;;;;;;;49.40;19.80;;;;;;;3.00;91.21;101139.34;31981805;27;20047;-79
2022/11/08 19:36:42;;;;;;;46.57;18.13;;;;;;;2.87;91.22;101135.91;31977261;27;20054;-79
2022/11/08 19:51:44;;;;;;;42.53;20.50;;;;;;;2.75;91.68;101157.41;31975664;27;20509;-77
2022/11/08 20:06:46;;;;;;;57.67;26.23;;;;;;;2.67;91.91;101152.97;31992572;27;20099;-79
2022/11/08 20:21:48;;;;;;;79.00;33.57;;;;;;;2.54;92.61;101154.13;32004294;27;20046;-80
2022/11/08 20:36:50;;;;;;;52.23;21.83;;;;;;;2.40;92.14;101155.25;31998606;27;20051;-80
2022/11/08 20:51:52;;;;;;;48.10;19.47;;;;;;;2.50;93.87;101155.91;31994028;27;20415;-78
2022/11/08 21:06:54;;;;;;;125.73;49.63;;;;;;;2.49;93.90;101159.72;31869302;27;20062;-79
2022/11/08 21:22:17;;;;;;;51.17;21.40;;;;;;;2.60;94.41;101169.63;31849702;27;20085;-78
2022/11/08 21:37:19;;;;;;;51.47;20.50;;;;;;;2.52;94.27;101177.81;31852544;27;20108;-77
2022/11/08 21:52:21;;;;;;;49.60;22.17;;;;;;;2.42;95.00;101187.06;31842706;27;20797;-75
2022/11/08 22:07:23;;;;;;;102.07;38.93;;;;;;;2.28;94.54;101184.75;32000194;27;20051;-79
2022/11/08 22:22:25;;;;;;;57.73;22.57;;;;;;;2.25;95.54;101193.44;31989071;27;20046;-77
2022/11/08 22:37:27;;;;;;;59.87;22.77;;;;;;;2.15;95.45;101199.25;31999643;27;20103;-78
2022/11/08 22:52:29;;;;;;;67.87;24.17;;;;;;;2.13;95.38;101182.72;32000895;27;20062;-77
2022/11/08 23:07:31;;;;;;;68.17;22.73;;;;;;;2.17;95.88;101177.47;32006145;27;20061;-77
2022/11/08 23:37:53;;;;;;;60.73;21.67;;;;;;;2.54;94.01;101197.78;31999065;27;20054;-77
2022/11/08 23:52:58;;;;;;;46.63;20.33;;;;;;;2.37;94.25;101203.38;31995423;27;20054;-75
